Time;durP1;ratioP1;P1;durP2;ratioP2;P2;SDS_P1;SDS_P2;PMS_P1;PMS_P2;Temp;Humidity;BMP_temperature;BMP_pressure;BME280_temperature;BME280_humidity;BME280_pressure;Samples;Min_cycle;Max_cycle;Signal;HPM_P1;HPM_P2
2023/05/02 00:00:52;;;;;;;10.00;8.50;;;;;;;;;;5026722;28;20200;-69
2023/05/02 00:03:20;;;;;;;8.50;7.33;;;;;;;;;;5023261;28;20196;-70
2023/05/02 00:05:47;;;;;;;7.00;6.40;;;;;;;;;;5027645;28;20219;-70
2023/05/02 00:08:15;;;;;;;6.33;5.73;;;;;;;;;;5026824;28;20240;-69
2023/05/02 00:10:42;;;;;;;6.00;5.50;;;;;;;;;;5021611;28;20247;-70
2023/05/02 00:13:09;;;;;;;6.27;5.67;;;;;;;;;;5026843;28;20204;-69
2023/05/02 00:15:36;;;;;;;6.70;6.20;;;;;;;;;;5021297;28;20295;-69
2023/05/02 00:18:03;;;;;;;7.27;6.67;;;;;;;;;;5026162;28;20215;-70
2023/05/02 00:20:31;;;;;;;9.00;8.20;;;;;;;;;;5027444;28;20222;-70
2023/05/02 00:22:59;;;;;;;11.00;9.90;;;;;;;;;;5025753;28;20212;-70
2023/05/02 00:25:26;;;;;;;12.50;11.40;;;;;;;;;;5026537;28;20204;-70
2023/05/02 00:27:53;;;;;;;14.70;13.33;;;;;;;;;;5024562;28;20200;-69
2023/05/02 00:30:20;;;;;;;16.67;15.10;;;;;;;;;;5023908;28;20332;-69
2023/05/02 00:32:47;;;;;;;17.30;15.80;;;;;;;;;;5023394;28;20239;-70
2023/05/02 00:35:14;;;;;;;16.70;15.20;;;;;;;;;;5024172;28;20207;-69
2023/05/02 00:37:43;;;;;;;18.07;16.43;;;;;;;;;;5026702;28;20210;-69
2023/05/02 00:40:10;;;;;;;17.17;15.67;;;;;;;;;;5024603;28;20196;-69
2023/05/02 00:42:37;;;;;;;17.40;15.80;;;;;;;;;;5022051;28;20208;-69
2023/05/02 00:45:05;;;;;;;17.50;15.80;;;;;;;;;;5026277;28;20211;-69
2023/05/02 00:47:32;;;;;;;17.77;16.03;;;;;;;;;;5022373;28;20296;-70
2023/05/02 00:49:59;;;;;;;17.40;15.80;;;;;;;;;;5025927;28;20216;-69
2023/05/02 00:52:27;;;;;;;18.80;17.00;;;;;;;;;;5025206;28;20213;-69
2023/05/02 00:54:55;;;;;;;18.03;16.43;;;;;;;;;;5023299;28;20207;-70
2023/05/02 00:57:24;;;;;;;19.80;17.90;;;;;;;;;;5027968;28;20215;-70
2023/05/02 00:59:51;;;;;;;19.80;17.83;;;;;;;;;;5023861;28;20286;-70
2023/05/02 01:02:26;;;;;;;18.40;16.70;;;;;;;;;;5023253;28;20283;-70
2023/05/02 01:04:58;;;;;;;26.00;23.50;;;;;;;;;;5022749;28;20200;-71
2023/05/02 01:07:32;;;;;;;22.57;20.40;;;;;;;;;;5021908;28;20204;-70
2023/05/02 01:10:10;;;;;;;27.30;24.73;;;;;;;;;;5023734;28;20238;-70
2023/05/02 01:12:42;;;;;;;22.73;20.53;;;;;;;;;;5026476;28;20208;-71
2023/05/02 01:15:10;;;;;;;21.27;19.27;;;;;;;;;;5023747;28;20211;-70
2023/05/02 01:17:38;;;;;;;23.63;21.23;;;;;;;;;;5025041;28;20216;-70
2023/05/02 01:20:07;;;;;;;21.23;19.00;;;;;;;;;;5022471;28;20239;-70
2023/05/02 01:22:35;;;;;;;20.07;18.17;;;;;;;;;;5025913;28;20203;-71
2023/05/02 01:25:09;;;;;;;21.80;19.63;;;;;;;;;;5026457;28;20207;-70
2023/05/02 01:27:41;;;;;;;21.63;19.53;;;;;;;;;;5020303;28;20208;-71
2023/05/02 01:30:10;;;;;;;19.80;17.97;;;;;;;;;;5026471;28;20228;-70
2023/05/02 01:32:38;;;;;;;21.50;19.37;;;;;;;;;;5029212;28;20230;-70
2023/05/02 01:35:06;;;;;;;20.47;18.47;;;;;;;;;;5029047;28;20208;-70
2023/05/02 01:37:34;;;;;;;20.10;18.20;;;;;;;;;;5028674;28;20204;-70
2023/05/02 01:40:02;;;;;;;22.23;20.03;;;;;;;;;;5026452;28;20196;-69
2023/05/02 01:42:30;;;;;;;19.10;17.30;;;;;;;;;;5027167;28;20204;-69
2023/05/02 01:44:58;;;;;;;19.93;18.00;;;;;;;;;;5028061;28;20232;-70
2023/05/02 01:47:27;;;;;;;20.03;18.13;;;;;;;;;;5025158;28;20208;-70
2023/05/02 01:49:54;;;;;;;21.10;19.13;;;;;;;;;;5027079;28;20227;-63
2023/05/02 01:52:22;;;;;;;21.17;19.07;;;;;;;;;;5029771;28;20201;-70
2023/05/02 01:54:51;;;;;;;20.43;18.33;;;;;;;;;;5028146;28;20205;-69
2023/05/02 01:57:19;;;;;;;22.63;20.40;;;;;;;;;;5027574;28;20216;-70
2023/05/02 01:59:48;;;;;;;21.23;19.13;;;;;;;;;;5027725;28;20212;-70
2023/05/02 02:02:16;;;;;;;20.87;18.80;;;;;;;;;;5024659;28;20201;-69
2023/05/02 02:04:46;;;;;;;20.10;18.00;;;;;;;;;;5024933;28;20210;-70
2023/05/02 02:07:14;;;;;;;26.40;23.63;;;;;;;;;;5026876;28;20208;-70
2023/05/02 02:09:41;;;;;;;26.90;24.30;;;;;;;;;;5028800;28;20204;-70
2023/05/02 02:12:11;;;;;;;22.90;20.70;;;;;;;;;;5026252;28;20200;-71
2023/05/02 02:14:39;;;;;;;20.77;18.80;;;;;;;;;;5026532;28;20197;-70
2023/05/02 02:17:12;;;;;;;21.57;19.47;;;;;;;;;;5026026;28;20219;-71
2023/05/02 02:19:40;;;;;;;21.83;19.70;;;;;;;;;;5023640;28;20207;-70
2023/05/02 02:22:09;;;;;;;22.90;20.60;;;;;;;;;;5029164;28;20211;-70
2023/05/02 02:24:37;;;;;;;21.57;19.47;;;;;;;;;;5027212;28;20212;-70
2023/05/02 02:27:04;;;;;;;22.30;20.00;;;;;;;;;;5025325;28;20197;-71
2023/05/02 02:29:31;;;;;;;21.90;19.70;;;;;;;;;;5028875;28;20249;-70
2023/05/02 02:31:58;;;;;;;21.60;19.40;;;;;;;;;;5027344;28;20231;-70
2023/05/02 02:34:26;;;;;;;23.07;20.70;;;;;;;;;;5023793;28;20204;-70
2023/05/02 02:36:56;;;;;;;23.33;20.97;;;;;;;;;;5027458;28;20200;-70
2023/05/02 02:39:29;;;;;;;23.07;20.77;;;;;;;;;;5028287;28;20219;-71
2023/05/02 02:42:02;;;;;;;22.90;20.60;;;;;;;;;;5025480;28;20268;-70
2023/05/02 02:44:34;;;;;;;22.50;20.10;;;;;;;;;;5028477;28;20204;-70
2023/05/02 02:47:07;;;;;;;21.40;19.30;;;;;;;;;;5025997;28;20231;-70
2023/05/02 02:49:39;;;;;;;21.60;19.40;;;;;;;;;;5044259;22;20236;-91
2023/05/02 02:52:11;;;;;;;22.20;19.93;;;;;;;;;;5006775;28;20226;-92
2023/05/02 02:54:42;;;;;;;25.03;22.43;;;;;;;;;;5009260;28;20304;-92
2023/05/02 02:57:16;;;;;;;21.83;19.67;;;;;;;;;;5010032;28;20285;-92
2023/05/02 02:59:58;;;;;;;26.27;23.57;;;;;;;;;;5009643;28;20236;-91
2023/05/02 03:02:28;;;;;;;22.70;20.50;;;;;;;;;;5011686;28;20460;-91
2023/05/02 03:04:56;;;;;;;22.40;20.20;;;;;;;;;;5015298;28;20243;-91
2023/05/02 03:07:24;;;;;;;23.33;20.60;;;;;;;;;;5010454;28;20227;-91
2023/05/02 03:09:53;;;;;;;20.43;18.53;;;;;;;;;;5011034;28;20205;-91
2023/05/02 03:12:20;;;;;;;24.80;22.30;;;;;;;;;;5007869;28;20252;-91
2023/05/02 03:14:47;;;;;;;22.90;20.60;;;;;;;;;;5011662;28;20217;-91
2023/05/02 03:17:15;;;;;;;23.87;21.37;;;;;;;;;;5016087;28;20233;-92
2023/05/02 03:19:42;;;;;;;23.30;20.90;;;;;;;;;;5008256;28;20288;-91
2023/05/02 03:22:09;;;;;;;21.97;19.77;;;;;;;;;;5006763;28;20224;-91
2023/05/02 03:24:37;;;;;;;21.20;19.00;;;;;;;;;;5003974;28;20244;-91
2023/05/02 03:27:06;;;;;;;21.13;18.93;;;;;;;;;;5009288;28;20293;-91
2023/05/02 03:29:33;;;;;;;22.27;19.97;;;;;;;;;;5015068;28;20208;-91
2023/05/02 03:32:00;;;;;;;21.23;19.13;;;;;;;;;;5008630;28;20228;-92
2023/05/02 03:34:27;;;;;;;21.03;18.93;;;;;;;;;;5012768;28;20348;-92
2023/05/02 03:36:55;;;;;;;20.40;18.20;;;;;;;;;;5010936;28;20204;-91
2023/05/02 03:39:22;;;;;;;20.03;17.83;;;;;;;;;;5014830;28;20304;-91
2023/05/02 03:41:49;;;;;;;20.47;18.27;;;;;;;;;;5012974;28;20217;-91
2023/05/02 03:44:18;;;;;;;19.67;17.57;;;;;;;;;;5010362;28;20216;-91
2023/05/02 03:46:45;;;;;;;18.93;16.93;;;;;;;;;;5010895;28;20221;-91
2023/05/02 03:49:13;;;;;;;19.70;17.53;;;;;;;;;;5007555;28;20233;-91
2023/05/02 03:51:40;;;;;;;20.00;17.97;;;;;;;;;;5010717;28;20300;-91
2023/05/02 03:54:08;;;;;;;20.13;18.00;;;;;;;;;;5010627;28;20217;-91
2023/05/02 03:56:36;;;;;;;19.17;17.27;;;;;;;;;;5010477;28;20216;-91
2023/05/02 03:59:04;;;;;;;20.40;18.30;;;;;;;;;;5011981;28;20209;-91
2023/05/02 04:01:33;;;;;;;19.23;17.23;;;;;;;;;;5011605;28;20310;-92
2023/05/02 04:04:00;;;;;;;19.20;17.23;;;;;;;;;;5019541;28;20208;-91
2023/05/02 04:06:27;;;;;;;20.27;18.27;;;;;;;;;;5008480;28;20224;-91
2023/05/02 04:08:54;;;;;;;19.97;17.97;;;;;;;;;;5003485;28;20197;-91
2023/05/02 04:11:22;;;;;;;20.47;18.27;;;;;;;;;;5008523;28;20235;-91
2023/05/02 04:13:49;;;;;;;21.23;19.03;;;;;;;;;;5009043;28;20296;-91
2023/05/02 04:16:16;;;;;;;20.37;18.30;;;;;;;;;;5008478;28;20205;-92
2023/05/02 04:18:45;;;;;;;20.53;18.43;;;;;;;;;;5009547;28;20243;-91
2023/05/02 04:21:20;;;;;;;20.90;18.70;;;;;;;;;;5012612;28;20200;-91
2023/05/02 04:23:47;;;;;;;22.80;20.40;;;;;;;;;;5003481;28;20212;-94
2023/05/02 04:26:15;;;;;;;21.77;19.47;;;;;;;;;;5006237;28;20212;-94
2023/05/02 04:28:43;;;;;;;23.13;20.70;;;;;;;;;;5011059;28;20206;-93
2023/05/02 04:31:10;;;;;;;20.50;18.40;;;;;;;;;;5003938;28;20229;-93
2023/05/02 04:33:37;;;;;;;19.90;17.80;;;;;;;;;;5017678;28;20291;-94
2023/05/02 04:36:06;;;;;;;24.50;21.83;;;;;;;;;;5013852;28;20200;-93
2023/05/02 04:38:34;;;;;;;20.93;18.73;;;;;;;;;;5006972;28;20308;-94
2023/05/02 04:41:01;;;;;;;20.20;18.10;;;;;;;;;;5007534;28;20207;-94
2023/05/02 04:43:28;;;;;;;20.07;18.00;;;;;;;;;;5006150;28;20266;-94
2023/05/02 04:45:57;;;;;;;20.63;18.57;;;;;;;;;;5009133;28;20256;-94
2023/05/02 04:48:25;;;;;;;20.67;18.47;;;;;;;;;;5010636;28;20231;-94
2023/05/02 04:50:53;;;;;;;19.90;17.77;;;;;;;;;;4999366;28;20240;-94
2023/05/02 04:53:22;;;;;;;21.57;19.27;;;;;;;;;;5008069;28;20299;-93
2023/05/02 04:55:49;;;;;;;20.87;18.67;;;;;;;;;;5006950;28;20200;-94
2023/05/02 04:58:17;;;;;;;22.50;20.03;;;;;;;;;;5006107;28;20310;-95
2023/05/02 05:00:44;;;;;;;22.73;20.37;;;;;;;;;;5001914;28;20236;-95
2023/05/02 05:03:11;;;;;;;23.33;19.37;;;;;;;;;;5010444;28;20271;-95
2023/05/02 05:05:39;;;;;;;22.17;19.83;;;;;;;;;;5009087;28;20304;-95
2023/05/02 05:08:06;;;;;;;21.93;19.63;;;;;;;;;;5013879;28;20209;-95
2023/05/02 05:10:35;;;;;;;22.70;20.30;;;;;;;;;;5007187;28;20219;-95
2023/05/02 05:13:03;;;;;;;21.60;19.27;;;;;;;;;;5006847;28;20260;-95
2023/05/02 05:15:30;;;;;;;22.10;19.70;;;;;;;;;;5007457;28;20223;-95
2023/05/02 05:17:57;;;;;;;25.20;20.93;;;;;;;;;;5010119;28;20225;-94
2023/05/02 05:20:25;;;;;;;23.17;20.33;;;;;;;;;;5013637;28;20277;-95
2023/05/02 05:22:53;;;;;;;21.03;18.90;;;;;;;;;;5012007;28;20201;-95
2023/05/02 05:25:20;;;;;;;20.27;18.17;;;;;;;;;;5009090;28;20204;-95
2023/05/02 05:27:51;;;;;;;22.30;16.97;;;;;;;;;;5010014;28;20205;-95
2023/05/02 05:30:18;;;;;;;20.97;18.43;;;;;;;;;;5007893;28;20213;-95
2023/05/02 05:32:45;;;;;;;20.40;17.80;;;;;;;;;;5002997;28;20221;-92
2023/05/02 05:37:41;;;;;;;22.13;19.80;;;;;;;;;;5001603;28;20235;-71
2023/05/02 05:40:09;;;;;;;26.40;21.63;;;;;;;;;;5005439;28;20266;-69
2023/05/02 05:42:36;;;;;;;22.07;19.47;;;;;;;;;;5009931;28;20215;-70
2023/05/02 05:45:05;;;;;;;22.33;19.70;;;;;;;;;;5012535;28;20205;-69
2023/05/02 05:47:32;;;;;;;25.60;19.77;;;;;;;;;;5012949;28;20205;-70
2023/05/02 05:49:59;;;;;;;25.10;19.90;;;;;;;;;;5014311;28;20197;-69
2023/05/02 05:52:26;;;;;;;24.87;20.27;;;;;;;;;;5013495;28;20229;-70
2023/05/02 05:54:55;;;;;;;19.97;17.80;;;;;;;;;;5009757;28;20205;-70
2023/05/02 05:57:22;;;;;;;21.93;17.20;;;;;;;;;;5012700;28;20208;-69
2023/05/02 05:59:49;;;;;;;18.67;16.43;;;;;;;;;;4992615;28;20236;-69
2023/05/02 06:02:18;;;;;;;19.03;16.90;;;;;;;;;;5010213;28;20209;-69
2023/05/02 06:04:46;;;;;;;19.03;15.97;;;;;;;;;;5012748;28;20216;-70
2023/05/02 06:07:13;;;;;;;20.10;16.80;;;;;;;;;;5011775;28;20212;-69
2023/05/02 06:12:10;;;;;;;18.30;15.53;;;;;;;;;;5002989;28;20225;-69
2023/05/02 06:14:37;;;;;;;19.00;15.80;;;;;;;;;;5007946;28;20205;-70
2023/05/02 06:17:04;;;;;;;17.13;14.87;;;;;;;;;;4996510;28;20270;-69
2023/05/02 06:19:33;;;;;;;16.50;14.53;;;;;;;;;;4996019;28;20197;-69
2023/05/02 06:22:00;;;;;;;16.50;13.27;;;;;;;;;;5003891;28;20197;-70
2023/05/02 06:24:27;;;;;;;14.77;13.10;;;;;;;;;;5002944;28;20201;-70
2023/05/02 06:26:55;;;;;;;16.27;12.43;;;;;;;;;;5008739;28;20287;-69
2023/05/02 06:29:22;;;;;;;15.70;12.50;;;;;;;;;;5008460;28;20205;-69
2023/05/02 06:31:50;;;;;;;14.40;11.30;;;;;;;;;;5005165;28;20229;-70
2023/05/02 06:34:17;;;;;;;13.47;10.77;;;;;;;;;;5002377;28;20212;-70
2023/05/02 06:36:45;;;;;;;16.13;11.20;;;;;;;;;;5008161;28;20204;-70
2023/05/02 06:39:13;;;;;;;13.77;11.53;;;;;;;;;;5006359;28;20223;-69
2023/05/02 06:41:40;;;;;;;13.10;11.30;;;;;;;;;;5006686;28;20196;-69
2023/05/02 06:44:07;;;;;;;14.07;11.07;;;;;;;;;;5002173;28;20209;-70
2023/05/02 06:46:35;;;;;;;14.70;11.27;;;;;;;;;;5007210;28;20209;-70
2023/05/02 06:49:02;;;;;;;12.50;10.57;;;;;;;;;;5005213;28;20209;-69
2023/05/02 06:51:29;;;;;;;12.37;10.37;;;;;;;;;;5006812;28;20233;-69
2023/05/02 06:53:57;;;;;;;14.47;11.03;;;;;;;;;;5004940;28;20216;-69
2023/05/02 06:56:25;;;;;;;12.37;10.43;;;;;;;;;;5001991;28;20214;-69
2023/05/02 06:58:52;;;;;;;14.27;11.63;;;;;;;;;;5005420;28;20200;-69
2023/05/02 07:01:19;;;;;;;14.50;10.73;;;;;;;;;;5001077;28;20206;-69
2023/05/02 07:03:47;;;;;;;12.17;10.43;;;;;;;;;;5007272;28;20287;-68
2023/05/02 07:06:14;;;;;;;10.50;9.33;;;;;;;;;;5009128;28;20208;-68
2023/05/02 07:08:41;;;;;;;10.57;9.40;;;;;;;;;;5005190;28;20209;-69
2023/05/02 07:11:09;;;;;;;12.63;9.60;;;;;;;;;;5004025;28;20247;-69
2023/05/02 07:13:36;;;;;;;11.23;9.17;;;;;;;;;;5004247;28;20210;-70
2023/05/02 07:16:04;;;;;;;11.43;9.00;;;;;;;;;;5004150;28;20213;-68
2023/05/02 07:18:31;;;;;;;11.73;9.07;;;;;;;;;;5002211;28;20331;-69
2023/05/02 07:21:00;;;;;;;9.13;7.97;;;;;;;;;;5003823;28;20197;-67
2023/05/02 07:23:29;;;;;;;9.67;7.27;;;;;;;;;;5008770;28;20208;-69
2023/05/02 07:26:02;;;;;;;8.02;6.78;;;;;;;;;;5008361;28;20271;-70
2023/05/02 07:28:33;;;;;;;7.90;7.03;;;;;;;;;;5005731;28;20204;-71
2023/05/02 07:31:03;;;;;;;7.27;5.83;;;;;;;;;;5001910;28;20268;-68
2023/05/02 07:33:32;;;;;;;6.90;5.80;;;;;;;;;;5000548;28;20236;-69
2023/05/02 07:36:00;;;;;;;8.57;7.10;;;;;;;;;;5004576;28;20207;-69
2023/05/02 07:38:37;;;;;;;7.23;6.53;;;;;;;;;;5006750;28;20207;-69
2023/05/02 07:41:05;;;;;;;8.97;7.07;;;;;;;;;;5005652;28;20212;-68
2023/05/02 07:43:40;;;;;;;9.40;7.47;;;;;;;;;;5009458;28;20205;-69
2023/05/02 07:46:08;;;;;;;8.98;7.93;;;;;;;;;;5001471;28;20211;-68
2023/05/02 07:48:35;;;;;;;7.80;7.00;;;;;;;;;;5004162;28;20213;-68
2023/05/02 07:51:09;;;;;;;8.95;7.57;;;;;;;;;;5002559;28;20204;-70
2023/05/02 07:53:37;;;;;;;9.65;7.90;;;;;;;;;;4999587;28;20229;-72
2023/05/02 07:56:11;;;;;;;9.27;8.27;;;;;;;;;;5007993;28;20201;-71
2023/05/02 07:58:40;;;;;;;9.57;8.57;;;;;;;;;;5004960;28;20263;-71
2023/05/02 08:01:11;;;;;;;11.05;7.78;;;;;;;;;;4998847;28;20200;-71
2023/05/02 08:03:41;;;;;;;9.18;8.20;;;;;;;;;;5001775;28;20197;-71
2023/05/02 08:06:09;;;;;;;10.07;8.48;;;;;;;;;;5008535;28;20211;-71
2023/05/02 08:08:37;;;;;;;9.77;8.05;;;;;;;;;;5014521;28;20291;-71
2023/05/02 08:11:05;;;;;;;9.23;8.07;;;;;;;;;;5000755;28;20320;-70
2023/05/02 08:13:36;;;;;;;10.48;8.88;;;;;;;;;;5001060;28;20264;-71
2023/05/02 08:16:07;;;;;;;10.50;8.85;;;;;;;;;;5000435;28;20224;-70
2023/05/02 08:18:35;;;;;;;9.55;8.55;;;;;;;;;;5001301;28;20216;-71
2023/05/02 08:21:05;;;;;;;10.63;9.02;;;;;;;;;;5001859;28;20244;-71
2023/05/02 08:26:03;;;;;;;11.15;9.00;;;;;;;;;;5008236;28;20244;-63
2023/05/02 08:28:36;;;;;;;9.68;8.23;;;;;;;;;;4987911;28;20205;-63
2023/05/02 08:31:14;;;;;;;11.63;9.10;;;;;;;;;;5009789;28;20204;-63
2023/05/02 08:33:43;;;;;;;10.07;8.80;;;;;;;;;;5010918;28;20278;-63
2023/05/02 08:36:14;;;;;;;13.15;9.05;;;;;;;;;;5006368;28;20205;-62
2023/05/02 08:38:49;;;;;;;9.68;8.55;;;;;;;;;;5009126;28;20205;-63
2023/05/02 08:41:20;;;;;;;11.40;8.55;;;;;;;;;;5010106;28;20216;-62
2023/05/02 08:43:48;;;;;;;10.02;8.15;;;;;;;;;;5010890;28;20201;-64
2023/05/02 08:46:21;;;;;;;10.00;8.80;;;;;;;;;;5011200;28;20208;-62
2023/05/02 08:48:52;;;;;;;12.93;9.68;;;;;;;;;;5008892;28;20228;-63
2023/05/02 08:51:24;;;;;;;10.63;9.02;;;;;;;;;;5009043;28;20229;-62
2023/05/02 08:53:55;;;;;;;11.20;9.25;;;;;;;;;;5010627;28;20232;-62
2023/05/02 08:56:26;;;;;;;12.18;8.95;;;;;;;;;;5009413;28;20205;-62
2023/05/02 08:58:53;;;;;;;9.32;8.38;;;;;;;;;;5010844;28;20251;-62
2023/05/02 09:01:24;;;;;;;10.60;9.43;;;;;;;;;;5009502;28;20209;-62
2023/05/02 09:03:53;;;;;;;11.35;8.82;;;;;;;;;;4992784;28;20197;-62
2023/05/02 09:06:21;;;;;;;8.52;7.63;;;;;;;;;;5004524;28;20215;-62
2023/05/02 09:08:51;;;;;;;6.93;6.22;;;;;;;;;;5010667;28;20213;-62
2023/05/02 09:11:18;;;;;;;6.45;5.75;;;;;;;;;;5009502;28;20221;-62
2023/05/02 09:13:47;;;;;;;8.32;6.00;;;;;;;;;;5005137;28;20224;-62
2023/05/02 09:16:15;;;;;;;7.30;6.57;;;;;;;;;;5007178;28;20288;-62
2023/05/02 09:18:44;;;;;;;9.23;6.70;;;;;;;;;;5008048;28;20205;-62
2023/05/02 09:21:12;;;;;;;6.03;5.43;;;;;;;;;;5010431;28;20220;-62
2023/05/02 09:23:40;;;;;;;7.28;6.35;;;;;;;;;;5009548;28;20209;-62
2023/05/02 09:26:14;;;;;;;7.32;6.35;;;;;;;;;;5009822;28;20240;-62
2023/05/02 09:28:42;;;;;;;6.93;6.22;;;;;;;;;;5008536;28;20200;-62
2023/05/02 09:31:09;;;;;;;7.22;6.50;;;;;;;;;;5005884;28;20205;-62
2023/05/02 09:36:07;;;;;;;6.97;5.15;;;;;;;;;;5020945;23;20233;-68
2023/05/02 09:38:34;;;;;;;5.18;4.68;;;;;;;;;;5004948;28;20235;-68
2023/05/02 09:41:02;;;;;;;4.72;4.30;;;;;;;;;;5002406;28;20205;-68
2023/05/02 09:43:29;;;;;;;5.70;4.65;;;;;;;;;;5006066;28;20213;-68
2023/05/02 09:46:00;;;;;;;5.20;4.65;;;;;;;;;;5002748;28;20201;-68
2023/05/02 09:48:28;;;;;;;5.45;4.95;;;;;;;;;;5002398;28;20233;-70
2023/05/02 09:50:55;;;;;;;5.70;5.10;;;;;;;;;;5009959;28;20233;-69
2023/05/02 09:53:25;;;;;;;5.70;5.20;;;;;;;;;;5007939;28;20221;-70
2023/05/02 09:56:00;;;;;;;4.88;4.47;;;;;;;;;;5007467;28;20205;-69
2023/05/02 09:58:29;;;;;;;4.35;3.83;;;;;;;;;;5002429;28;20245;-69
2023/05/02 10:00:57;;;;;;;4.47;4.07;;;;;;;;;;5003823;28;20274;-69
2023/05/02 10:03:25;;;;;;;4.70;4.20;;;;;;;;;;5003491;28;20216;-69
2023/05/02 10:05:53;;;;;;;4.85;4.00;;;;;;;;;;5000707;28;20205;-70
2023/05/02 10:08:20;;;;;;;4.82;4.43;;;;;;;;;;5007895;28;20321;-71
2023/05/02 10:10:51;;;;;;;4.80;4.30;;;;;;;;;;5008250;28;20211;-71
2023/05/02 10:13:20;;;;;;;4.60;4.20;;;;;;;;;;5009668;28;20229;-68
2023/05/02 10:15:49;;;;;;;4.78;4.32;;;;;;;;;;5010768;28;20229;-68
2023/05/02 10:18:17;;;;;;;5.47;4.50;;;;;;;;;;5007721;28;20205;-69
2023/05/02 10:20:49;;;;;;;4.03;3.72;;;;;;;;;;5005959;28;20219;-70
2023/05/02 10:23:16;;;;;;;4.25;3.85;;;;;;;;;;5005975;28;20200;-69
2023/05/02 10:25:44;;;;;;;4.72;4.22;;;;;;;;;;5007138;28;20220;-69
2023/05/02 10:28:12;;;;;;;4.88;4.38;;;;;;;;;;5002750;28;20204;-69
2023/05/02 10:30:40;;;;;;;5.68;4.47;;;;;;;;;;5003791;28;20228;-69
2023/05/02 10:33:07;;;;;;;5.38;4.88;;;;;;;;;;5006297;28;20296;-68
2023/05/02 10:35:36;;;;;;;5.47;4.93;;;;;;;;;;5005265;28;20232;-68
2023/05/02 10:38:04;;;;;;;4.88;4.47;;;;;;;;;;5002882;28;20212;-68
2023/05/02 10:40:31;;;;;;;5.03;4.63;;;;;;;;;;5005530;28;20208;-68
2023/05/02 10:42:58;;;;;;;4.70;4.30;;;;;;;;;;5000383;28;20202;-68
2023/05/02 10:45:33;;;;;;;5.07;4.60;;;;;;;;;;5001586;28;20205;-68
2023/05/02 10:48:13;;;;;;;4.60;4.20;;;;;;;;;;5002648;28;20210;-68
2023/05/02 10:50:45;;;;;;;4.57;4.18;;;;;;;;;;5007727;28;20213;-68
2023/05/02 10:53:25;;;;;;;5.13;4.63;;;;;;;;;;5004977;28;20231;-68
2023/05/02 10:56:24;;;;;;;5.80;5.30;;;;;;;;;;5009042;28;20205;-68
2023/05/02 10:58:52;;;;;;;5.55;5.05;;;;;;;;;;4926535;29;20212;-69
2023/05/02 11:01:43;;;;;;;4.90;4.30;;;;;;;;;;4991234;28;20211;-69
2023/05/02 11:04:12;;;;;;;4.50;4.10;;;;;;;;;;4985078;28;20208;-68
2023/05/02 11:06:54;;;;;;;5.80;4.90;;;;;;;;;;5005050;28;20208;-69
2023/05/02 11:09:33;;;;;;;6.45;5.20;;;;;;;;;;4995738;28;20209;-68
2023/05/02 11:12:03;;;;;;;5.85;5.35;;;;;;;;;;5005667;28;20196;-69
2023/05/02 11:14:49;;;;;;;5.82;5.22;;;;;;;;;;5004059;28;20308;-69
2023/05/02 11:17:17;;;;;;;3.67;3.30;;;;;;;;;;5005132;28;20221;-69
2023/05/02 11:20:03;;;;;;;4.93;2.50;;;;;;;;;;5007225;28;20216;-69
2023/05/02 11:22:35;;;;;;;1.25;1.25;;;;;;;;;;5003550;28;20213;-70
2023/05/02 11:25:02;;;;;;;4.75;1.30;;;;;;;;;;5002386;28;20205;-69
2023/05/02 11:27:38;;;;;;;1.40;1.30;;;;;;;;;;5006458;28;20212;-69
2023/05/02 11:30:06;;;;;;;2.35;1.50;;;;;;;;;;5004580;28;20308;-69
2023/05/02 11:32:48;;;;;;;1.40;1.30;;;;;;;;;;4999819;28;20215;-69
2023/05/02 11:35:16;;;;;;;1.73;1.33;;;;;;;;;;4999947;28;20243;-69
2023/05/02 11:37:44;;;;;;;2.40;1.40;;;;;;;;;;5005111;28;20205;-69
2023/05/02 11:40:13;;;;;;;1.30;1.20;;;;;;;;;;5005222;28;20296;-69
2023/05/02 11:42:40;;;;;;;1.20;1.17;;;;;;;;;;5003106;28;20204;-69
2023/05/02 11:45:08;;;;;;;1.42;1.20;;;;;;;;;;5001950;28;20225;-69
2023/05/02 11:47:35;;;;;;;2.03;1.70;;;;;;;;;;5000840;28;20213;-69
2023/05/02 11:50:05;;;;;;;3.55;2.00;;;;;;;;;;5003291;28;20240;-69
2023/05/02 11:52:37;;;;;;;2.33;2.17;;;;;;;;;;5004246;28;20212;-68
2023/05/02 11:55:07;;;;;;;2.15;1.90;;;;;;;;;;5005035;28;20217;-69
2023/05/02 11:57:35;;;;;;;2.30;2.10;;;;;;;;;;5001523;28;20209;-68
2023/05/02 12:00:02;;;;;;;2.15;2.00;;;;;;;;;;5006906;28;20209;-68
2023/05/02 12:02:36;;;;;;;2.28;2.08;;;;;;;;;;5008647;28;20307;-68
2023/05/02 12:05:05;;;;;;;2.70;2.50;;;;;;;;;;5006916;28;20207;-68
2023/05/02 12:07:36;;;;;;;2.63;2.42;;;;;;;;;;4991911;28;20228;-68
2023/05/02 12:10:04;;;;;;;2.45;2.25;;;;;;;;;;5003991;28;20216;-68
2023/05/02 12:12:32;;;;;;;2.28;1.95;;;;;;;;;;5003619;28;20220;-68
2023/05/02 12:14:59;;;;;;;2.05;1.90;;;;;;;;;;5002962;28;20233;-68
2023/05/02 12:17:26;;;;;;;1.80;1.70;;;;;;;;;;5003164;28;20205;-68
2023/05/02 12:19:54;;;;;;;2.40;2.20;;;;;;;;;;5000465;28;20201;-68
2023/05/02 12:22:21;;;;;;;2.15;2.05;;;;;;;;;;5006191;28;20197;-68
2023/05/02 12:24:49;;;;;;;2.05;1.90;;;;;;;;;;5003391;28;20201;-69
2023/05/02 12:27:17;;;;;;;2.50;1.70;;;;;;;;;;5002663;28;20205;-67
2023/05/02 12:29:46;;;;;;;1.85;1.75;;;;;;;;;;5002226;28;20216;-68
2023/05/02 12:32:13;;;;;;;1.65;1.55;;;;;;;;;;5002400;28;20251;-68
2023/05/02 12:34:41;;;;;;;1.70;1.60;;;;;;;;;;5005548;28;20244;-68
2023/05/02 12:37:10;;;;;;;1.33;1.23;;;;;;;;;;5006078;28;20201;-67
2023/05/02 12:39:38;;;;;;;2.22;1.38;;;;;;;;;;5005699;28;20299;-68
2023/05/02 12:42:11;;;;;;;1.23;1.13;;;;;;;;;;5005535;28;20201;-68
2023/05/02 12:44:39;;;;;;;1.05;1.05;;;;;;;;;;5001971;28;20197;-68
2023/05/02 12:47:08;;;;;;;1.05;1.05;;;;;;;;;;5004682;28;20291;-68
2023/05/02 12:49:49;;;;;;;1.00;1.00;;;;;;;;;;4999430;28;20216;-68
2023/05/02 12:52:16;;;;;;;0.82;0.82;;;;;;;;;;5001148;28;20205;-70
2023/05/02 12:54:43;;;;;;;1.27;1.10;;;;;;;;;;5008496;28;20228;-68
2023/05/02 12:57:22;;;;;;;2.55;1.00;;;;;;;;;;5004842;28;20201;-68
2023/05/02 12:59:49;;;;;;;1.42;1.00;;;;;;;;;;5004260;28;20287;-68
2023/05/02 13:02:21;;;;;;;0.85;0.85;;;;;;;;;;5005970;28;20208;-68
2023/05/02 13:04:49;;;;;;;1.05;1.05;;;;;;;;;;4987603;28;20288;-68
2023/05/02 13:07:17;;;;;;;0.93;0.93;;;;;;;;;;5004143;28;20221;-68
2023/05/02 13:09:44;;;;;;;0.88;0.82;;;;;;;;;;5007333;28;20208;-68
2023/05/02 13:12:17;;;;;;;0.80;0.80;;;;;;;;;;5007327;28;20218;-68
2023/05/02 13:14:47;;;;;;;0.98;0.95;;;;;;;;;;5005058;28;20279;-68
2023/05/02 13:17:20;;;;;;;0.90;0.90;;;;;;;;;;4989642;28;20218;-68
2023/05/02 13:19:51;;;;;;;0.80;0.80;;;;;;;;;;5000659;28;20300;-68
2023/05/02 13:22:26;;;;;;;0.80;0.80;;;;;;;;;;5006236;28;20204;-68
2023/05/02 13:25:01;;;;;;;1.08;0.80;;;;;;;;;;4985275;28;20232;-68
2023/05/02 13:27:29;;;;;;;0.75;0.75;;;;;;;;;;4990013;28;20210;-68
2023/05/02 13:30:00;;;;;;;1.27;0.80;;;;;;;;;;4993312;28;20220;-68
2023/05/02 13:32:31;;;;;;;1.00;1.00;;;;;;;;;;4992219;28;20264;-68
2023/05/02 13:35:14;;;;;;;1.02;1.00;;;;;;;;;;4996358;28;20244;-67
2023/05/02 13:37:46;;;;;;;0.90;0.90;;;;;;;;;;5010866;28;20328;-68
2023/05/02 13:40:15;;;;;;;0.90;0.90;;;;;;;;;;5010753;28;20236;-68
2023/05/02 13:42:43;;;;;;;1.50;1.13;;;;;;;;;;5007750;28;20206;-68
2023/05/02 13:45:13;;;;;;;1.08;1.00;;;;;;;;;;4990613;28;20205;-68
2023/05/02 13:47:43;;;;;;;1.95;1.10;;;;;;;;;;4991721;28;20209;-67
2023/05/02 13:50:13;;;;;;;1.50;1.40;;;;;;;;;;5006403;28;20216;-68
2023/05/02 13:52:43;;;;;;;1.95;1.13;;;;;;;;;;5009056;28;20213;-67
2023/05/02 13:55:25;;;;;;;1.17;1.10;;;;;;;;;;4992746;28;20315;-67
2023/05/02 13:57:55;;;;;;;0.98;0.98;;;;;;;;;;5009166;28;20213;-67
2023/05/02 14:00:23;;;;;;;1.50;1.17;;;;;;;;;;5006399;28;20213;-67
2023/05/02 14:02:51;;;;;;;1.00;1.00;;;;;;;;;;5008545;28;20204;-68
2023/05/02 14:05:19;;;;;;;1.40;1.30;;;;;;;;;;4989964;28;20286;-67
2023/05/02 14:07:52;;;;;;;1.10;1.00;;;;;;;;;;5008315;28;20291;-67
2023/05/02 14:10:20;;;;;;;3.33;1.10;;;;;;;;;;5004342;28;20231;-68
2023/05/02 14:12:49;;;;;;;1.08;1.08;;;;;;;;;;5005018;28;20212;-68
2023/05/02 14:15:19;;;;;;;1.27;1.00;;;;;;;;;;5007088;28;20228;-69
2023/05/02 14:17:54;;;;;;;3.22;0.90;;;;;;;;;;4990516;28;20264;-68
2023/05/02 14:20:22;;;;;;;2.42;1.08;;;;;;;;;;5006451;28;20210;-69
2023/05/02 14:22:50;;;;;;;1.38;1.02;;;;;;;;;;5010045;28;20284;-69
2023/05/02 14:25:26;;;;;;;1.15;1.02;;;;;;;;;;5004855;28;20208;-69
2023/05/02 14:27:56;;;;;;;0.85;0.82;;;;;;;;;;5008525;28;20200;-68
2023/05/02 14:30:31;;;;;;;0.90;0.90;;;;;;;;;;5005921;28;20219;-68
2023/05/02 14:33:02;;;;;;;4.68;1.33;;;;;;;;;;5006903;28;20205;-68
2023/05/02 14:35:34;;;;;;;1.63;1.38;;;;;;;;;;5003773;28;20228;-68
2023/05/02 14:38:03;;;;;;;1.63;1.20;;;;;;;;;;5005207;28;20210;-68
2023/05/02 14:40:33;;;;;;;1.95;1.30;;;;;;;;;;5005023;28;20228;-68
2023/05/02 14:43:00;;;;;;;0.98;0.95;;;;;;;;;;5011458;28;20212;-68
2023/05/02 14:45:29;;;;;;;1.40;1.23;;;;;;;;;;5005468;28;20299;-68
2023/05/02 14:47:56;;;;;;;2.22;1.23;;;;;;;;;;5007791;28;20239;-68
2023/05/02 14:50:24;;;;;;;1.92;1.38;;;;;;;;;;5006657;28;20216;-68
2023/05/02 14:52:52;;;;;;;1.45;1.35;;;;;;;;;;5005178;28;20201;-68